Time;durP1;ratioP1;P1;durP2;ratioP2;P2;SDS_P1;SDS_P2;PMS_P1;PMS_P2;Temp;Humidity;BMP_temperature;BMP_pressure;BME280_temperature;BME280_humidity;BME280_pressure;Samples;Min_cycle;Max_cycle;Signal;HPM_P1;HPM_P2
2021/03/03 00:00:22;;;;;;;1.20;0.30;;;4.90;99.90;;;;;;5016492;28;20190;-81
2021/03/03 00:02:48;;;;;;;0.10;0.10;;;5.00;99.90;;;;;;5025186;28;20201;-81
2021/03/03 00:05:14;;;;;;;0.67;0.53;;;5.20;99.90;;;;;;5017272;28;20297;-81
2021/03/03 00:07:39;;;;;;;3.07;0.63;;;5.40;99.90;;;;;;5012865;28;20655;-81
2021/03/03 00:10:06;;;;;;;0.40;0.23;;;5.50;99.90;;;;;;5013832;28;20260;-80
2021/03/03 00:12:31;;;;;;;0.13;0.13;;;5.60;99.90;;;;;;5013727;28;20559;-81
2021/03/03 00:14:57;;;;;;;1.37;0.90;;;5.60;99.90;;;;;;5014764;28;20194;-81
2021/03/03 00:17:22;;;;;;;1.83;1.73;;;5.70;99.90;;;;;;5014991;28;20197;-81
2021/03/03 00:19:48;;;;;;;0.37;0.37;;;5.70;99.90;;;;;;5011997;28;20330;-80
2021/03/03 00:22:13;;;;;;;0.83;0.60;;;5.40;99.90;;;;;;5014729;28;20191;-81
2021/03/03 00:24:39;;;;;;;0.10;0.10;;;5.30;99.90;;;;;;5014091;28;20214;-81
2021/03/03 00:27:05;;;;;;;0.90;0.83;;;5.20;99.90;;;;;;5014421;28;20652;-81
2021/03/03 00:29:30;;;;;;;1.83;0.40;;;5.20;99.90;;;;;;5012796;28;20577;-84
2021/03/03 00:31:56;;;;;;;0.40;0.40;;;5.30;99.90;;;;;;5012748;28;20195;-79
2021/03/03 00:34:22;;;;;;;7.70;0.40;;;5.30;99.90;;;;;;5014821;28;20191;-81
2021/03/03 00:36:48;;;;;;;0.27;0.27;;;5.30;99.90;;;;;;5010760;28;20201;-81
2021/03/03 00:39:13;;;;;;;0.53;0.53;;;5.30;99.90;;;;;;5010318;28;20207;-81
2021/03/03 00:41:39;;;;;;;0.40;0.40;;;5.30;99.90;;;;;;5012848;28;20233;-81
2021/03/03 00:44:05;;;;;;;0.20;0.20;;;5.20;99.90;;;;;;5011613;28;20577;-81
2021/03/03 00:46:30;;;;;;;1.20;1.10;;;5.30;99.90;;;;;;5012436;28;20203;-81
2021/03/03 00:48:56;;;;;;;0.57;0.30;;;5.30;99.90;;;;;;5012044;28;20202;-81
2021/03/03 00:51:21;;;;;;;0.87;0.87;;;5.40;99.90;;;;;;5013496;28;20217;-81
2021/03/03 00:53:47;;;;;;;0.97;0.37;;;5.50;99.90;;;;;;5012414;28;20191;-81
2021/03/03 00:56:13;;;;;;;0.10;0.10;;;5.50;99.90;;;;;;5011026;28;20206;-81
2021/03/03 00:58:38;;;;;;;0.10;0.10;;;5.40;99.90;;;;;;5011692;28;20218;-82
2021/03/03 01:01:04;;;;;;;0.40;0.40;;;5.40;99.90;;;;;;5011398;28;20192;-81
2021/03/03 01:03:29;;;;;;;0.10;0.10;;;5.40;99.90;;;;;;5010066;28;20563;-81
2021/03/03 01:05:55;;;;;;;0.20;0.20;;;5.40;99.90;;;;;;5011103;28;20179;-81
2021/03/03 01:08:21;;;;;;;0.77;0.27;;;5.40;99.90;;;;;;5009018;28;20761;-81
2021/03/03 01:10:46;;;;;;;0.43;0.43;;;5.40;99.90;;;;;;5012210;28;20178;-82
2021/03/03 01:13:12;;;;;;;0.33;0.33;;;5.50;99.90;;;;;;5009621;28;20175;-81
2021/03/03 01:15:38;;;;;;;0.10;0.10;;;5.50;99.90;;;;;;5013500;28;20194;-81
2021/03/03 01:18:03;;;;;;;0.40;0.40;;;5.50;99.90;;;;;;5013815;28;20728;-81
2021/03/03 01:20:30;;;;;;;0.30;0.30;;;5.40;99.90;;;;;;5013913;28;20781;-82
2021/03/03 01:22:57;;;;;;;1.00;0.90;;;5.50;99.90;;;;;;5014583;28;20757;-81
2021/03/03 01:25:22;;;;;;;0.20;0.20;;;5.50;99.90;;;;;;5014965;28;20206;-81
2021/03/03 01:27:48;;;;;;;0.30;0.30;;;5.40;99.90;;;;;;5014447;28;20260;-81
2021/03/03 01:30:15;;;;;;;1.10;1.10;;;5.40;99.90;;;;;;5013970;28;20288;-81
2021/03/03 01:32:40;;;;;;;1.53;1.43;;;5.30;99.90;;;;;;5017109;28;20182;-81
2021/03/03 01:35:07;;;;;;;0.43;0.43;;;5.30;99.90;;;;;;5014822;28;20267;-81
2021/03/03 01:37:32;;;;;;;0.87;0.70;;;5.20;99.90;;;;;;5016464;28;20286;-81
2021/03/03 01:39:58;;;;;;;2.20;0.73;;;5.20;99.90;;;;;;5011087;28;20226;-81
2021/03/03 01:42:23;;;;;;;0.10;0.10;;;5.10;99.90;;;;;;5016743;28;20196;-80
2021/03/03 01:44:49;;;;;;;2.30;2.13;;;4.80;99.90;;;;;;5012215;28;20210;-80
2021/03/03 01:47:14;;;;;;;0.40;0.40;;;4.60;99.90;;;;;;5013933;28;20282;-82
2021/03/03 01:49:40;;;;;;;0.30;0.30;;;4.60;99.90;;;;;;5012626;28;20270;-81
2021/03/03 01:52:07;;;;;;;2.20;0.70;;;4.70;99.90;;;;;;5014561;28;20182;-80
2021/03/03 01:54:33;;;;;;;0.63;0.63;;;4.80;99.90;;;;;;5015511;28;20192;-81
2021/03/03 01:57:01;;;;;;;0.40;0.40;;;4.80;99.90;;;;;;5015248;28;20569;-81
2021/03/03 01:59:26;;;;;;;0.47;0.47;;;4.80;99.90;;;;;;5015873;28;20202;-81
2021/03/03 02:01:52;;;;;;;0.20;0.20;;;4.80;99.90;;;;;;5014978;28;20200;-81
2021/03/03 02:04:18;;;;;;;0.10;0.10;;;4.80;99.90;;;;;;5014210;28;20209;-81
2021/03/03 02:07:05;;;;;;;2.73;0.23;;;4.80;99.90;;;;;;5014590;28;20195;-81
2021/03/03 02:09:41;;;;;;;1.70;1.13;;;4.90;99.90;;;;;;5012454;28;20213;-81
2021/03/03 02:12:27;;;;;;;0.57;0.30;;;4.90;99.90;;;;;;5013695;28;20248;-80
2021/03/03 02:14:57;;;;;;;1.57;0.43;;;5.10;99.90;;;;;;5013228;28;20214;-81
2021/03/03 02:17:25;;;;;;;0.20;0.20;;;5.10;99.90;;;;;;5013479;28;20397;-81
2021/03/03 02:19:51;;;;;;;0.57;0.40;;;5.10;99.90;;;;;;5011954;28;20302;-82
2021/03/03 02:22:35;;;;;;;0.90;0.50;;;5.10;99.90;;;;;;5015117;28;20271;-81
2021/03/03 02:25:09;;;;;;;1.60;0.40;;;5.10;99.90;;;;;;5012464;28;20248;-81
2021/03/03 02:27:35;;;;;;;1.30;1.07;;;5.10;99.90;;;;;;5009440;28;20528;-81
2021/03/03 02:30:04;;;;;;;0.77;0.57;;;5.00;99.90;;;;;;5012647;28;20574;-81
2021/03/03 02:32:30;;;;;;;0.30;0.30;;;5.00;99.90;;;;;;5013828;28;20190;-81
2021/03/03 02:34:56;;;;;;;0.50;0.30;;;5.00;99.90;;;;;;5011304;28;20191;-82
2021/03/03 02:37:22;;;;;;;1.90;0.57;;;5.00;99.90;;;;;;5014510;28;20200;-81
2021/03/03 02:39:48;;;;;;;0.87;0.40;;;4.90;99.90;;;;;;5011215;28;20299;-83
2021/03/03 02:42:15;;;;;;;0.67;0.67;;;4.90;99.90;;;;;;5013167;28;20182;-81
2021/03/03 02:44:41;;;;;;;0.10;0.10;;;4.90;99.90;;;;;;5010310;28;20215;-84
2021/03/03 02:47:07;;;;;;;1.00;0.40;;;4.90;99.90;;;;;;5010928;28;20183;-81
2021/03/03 02:49:34;;;;;;;0.70;0.70;;;4.90;99.90;;;;;;5014097;28;20302;-81
2021/03/03 02:52:00;;;;;;;0.13;0.13;;;4.90;99.90;;;;;;5014509;28;20241;-81
2021/03/03 02:54:26;;;;;;;0.20;0.20;;;4.90;99.90;;;;;;5009702;28;20262;-80
2021/03/03 02:56:52;;;;;;;1.23;0.20;;;4.90;99.90;;;;;;5012741;28;20199;-81
2021/03/03 02:59:37;;;;;;;0.50;0.50;;;4.90;99.90;;;;;;5016492;28;20257;-80
2021/03/03 03:02:06;;;;;;;0.73;0.50;;;4.90;99.90;;;;;;5010338;28;20268;-81
2021/03/03 03:04:35;;;;;;;0.60;0.60;;;4.90;99.90;;;;;;5012186;28;20203;-81
2021/03/03 03:07:08;;;;;;;0.97;0.87;;;4.90;99.90;;;;;;5015991;28;20182;-80
2021/03/03 03:09:36;;;;;;;0.50;0.30;;;4.90;99.90;;;;;;5020622;28;20289;-80
2021/03/03 03:12:03;;;;;;;0.80;0.63;;;4.90;99.90;;;;;;5024352;28;20179;-79
2021/03/03 03:14:29;;;;;;;0.67;0.67;;;5.00;99.90;;;;;;5016940;28;20248;-80
2021/03/03 03:16:56;;;;;;;2.33;1.60;;;5.00;99.90;;;;;;5019468;28;20322;-80
2021/03/03 03:19:44;;;;;;;0.83;0.40;;;4.90;99.90;;;;;;5016087;28;20399;-81
2021/03/03 03:22:14;;;;;;;0.43;0.40;;;4.90;99.90;;;;;;5016501;28;20664;-80
2021/03/03 03:24:42;;;;;;;2.13;0.40;;;4.90;99.90;;;;;;5015346;28;20217;-81
2021/03/03 03:27:09;;;;;;;1.23;0.60;;;4.90;99.90;;;;;;5016664;28;20183;-81
2021/03/03 03:29:38;;;;;;;0.50;0.50;;;4.90;99.90;;;;;;5014133;28;20331;-81
2021/03/03 03:32:05;;;;;;;0.40;0.40;;;4.80;99.90;;;;;;5014217;28;20181;-80
2021/03/03 03:34:30;;;;;;;0.23;0.23;;;4.70;99.90;;;;;;5014879;28;20197;-81
2021/03/03 03:36:57;;;;;;;1.03;0.47;;;4.70;99.90;;;;;;5012653;28;20203;-80
2021/03/03 03:39:22;;;;;;;1.20;1.00;;;4.70;99.90;;;;;;5010773;28;20231;-80
2021/03/03 03:41:49;;;;;;;0.70;0.50;;;4.70;99.90;;;;;;5011314;28;20696;-81
2021/03/03 03:44:15;;;;;;;1.40;0.90;;;4.70;99.90;;;;;;5011715;28;20805;-81
2021/03/03 03:46:42;;;;;;;0.27;0.23;;;4.70;99.90;;;;;;5010469;28;20192;-81
2021/03/03 03:49:08;;;;;;;0.40;0.40;;;4.70;99.90;;;;;;5012646;28;20359;-82
2021/03/03 03:51:34;;;;;;;0.40;0.40;;;4.70;99.90;;;;;;5013033;28;20186;-83
2021/03/03 03:54:00;;;;;;;0.30;0.27;;;4.70;99.90;;;;;;5012469;28;20187;-80
2021/03/03 03:56:26;;;;;;;0.53;0.53;;;4.60;99.90;;;;;;5014391;28;20214;-81
2021/03/03 03:58:52;;;;;;;1.57;0.67;;;4.70;99.90;;;;;;5014278;28;20205;-81
2021/03/03 04:01:17;;;;;;;1.43;1.37;;;4.60;99.90;;;;;;5017140;28;20197;-81
2021/03/03 04:03:43;;;;;;;1.53;0.50;;;4.60;99.90;;;;;;5005428;28;20232;-80
2021/03/03 04:06:08;;;;;;;0.13;0.13;;;4.60;99.90;;;;;;5007046;28;20270;-81
2021/03/03 04:08:34;;;;;;;0.83;0.30;;;4.60;99.90;;;;;;5013673;28;20685;-81
2021/03/03 04:10:59;;;;;;;1.80;0.87;;;4.60;99.90;;;;;;5011091;28;20288;-80
2021/03/03 04:13:26;;;;;;;0.40;0.30;;;4.60;99.90;;;;;;5012838;28;20245;-81
2021/03/03 04:15:51;;;;;;;1.10;1.00;;;4.50;99.90;;;;;;5012074;28;20268;-81
2021/03/03 04:18:17;;;;;;;0.23;0.23;;;4.50;99.90;;;;;;5013357;28;20255;-81
2021/03/03 04:20:43;;;;;;;1.13;0.60;;;4.40;99.90;;;;;;5010312;28;20184;-81
2021/03/03 04:23:09;;;;;;;0.77;0.73;;;4.40;99.90;;;;;;5012234;28;20185;-81
2021/03/03 04:25:36;;;;;;;1.70;1.20;;;4.30;99.90;;;;;;5011922;28;20913;-80
2021/03/03 04:28:06;;;;;;;0.77;0.40;;;4.20;99.90;;;;;;5011397;28;20190;-81
2021/03/03 04:30:33;;;;;;;0.50;0.50;;;4.20;99.90;;;;;;5009556;28;20709;-80
2021/03/03 04:32:59;;;;;;;2.50;0.87;;;4.10;99.90;;;;;;5010933;28;20634;-83
2021/03/03 04:35:24;;;;;;;0.47;0.47;;;4.10;99.90;;;;;;5011839;28;20205;-81
2021/03/03 04:37:50;;;;;;;1.77;0.90;;;4.10;99.90;;;;;;5013006;28;20198;-81
2021/03/03 04:40:17;;;;;;;0.30;0.30;;;4.10;99.90;;;;;;5008899;28;20717;-81
2021/03/03 04:42:42;;;;;;;0.47;0.33;;;4.10;99.90;;;;;;5008214;28;20200;-81
2021/03/03 04:45:09;;;;;;;1.03;0.50;;;4.20;99.90;;;;;;5010878;28;20212;-80
2021/03/03 04:47:35;;;;;;;2.83;0.73;;;4.20;99.90;;;;;;5010945;28;20183;-81
2021/03/03 04:50:01;;;;;;;0.20;0.20;;;4.30;99.90;;;;;;5010185;28;20608;-81
2021/03/03 04:52:27;;;;;;;0.30;0.30;;;4.30;99.90;;;;;;5011007;28;20189;-81
2021/03/03 04:54:52;;;;;;;0.40;0.40;;;4.30;99.90;;;;;;5010601;28;20249;-81
2021/03/03 04:57:18;;;;;;;3.40;0.57;;;4.30;99.90;;;;;;5010332;28;20192;-81
2021/03/03 04:59:44;;;;;;;0.50;0.50;;;3.80;99.90;;;;;;5013473;28;20205;-80
2021/03/03 05:02:09;;;;;;;0.20;0.20;;;3.50;99.90;;;;;;5012341;28;20190;-81
2021/03/03 05:04:35;;;;;;;0.23;0.17;;;3.40;99.90;;;;;;5012165;28;20213;-82
2021/03/03 05:07:00;;;;;;;0.17;0.17;;;3.20;99.90;;;;;;5013901;28;20188;-82
2021/03/03 05:09:26;;;;;;;0.20;0.20;;;3.30;99.90;;;;;;5012273;28;20229;-81
2021/03/03 05:11:52;;;;;;;0.10;0.10;;;3.50;99.90;;;;;;5011991;28;20208;-81
2021/03/03 05:14:17;;;;;;;0.43;0.43;;;3.70;99.90;;;;;;5013504;28;20242;-82
2021/03/03 05:16:44;;;;;;;0.60;0.60;;;3.80;99.90;;;;;;5012871;28;20678;-82
2021/03/03 05:19:09;;;;;;;0.30;0.30;;;3.80;99.90;;;;;;5013694;28;20587;-82
2021/03/03 05:21:36;;;;;;;0.43;0.43;;;4.00;99.90;;;;;;5011390;28;20186;-83
2021/03/03 05:24:01;;;;;;;0.40;0.40;;;4.10;99.90;;;;;;5014015;28;20208;-82
2021/03/03 05:26:27;;;;;;;0.10;0.10;;;4.10;99.90;;;;;;5009569;28;20187;-81
2021/03/03 05:28:52;;;;;;;0.43;0.43;;;4.20;99.90;;;;;;5010732;28;20551;-82
2021/03/03 05:31:18;;;;;;;0.87;0.50;;;4.20;99.90;;;;;;5010163;28;20210;-81
2021/03/03 05:33:44;;;;;;;0.60;0.60;;;4.20;99.90;;;;;;5011620;28;20197;-81
2021/03/03 05:36:10;;;;;;;5.83;0.70;;;4.20;99.90;;;;;;5008941;28;20216;-82
2021/03/03 05:38:38;;;;;;;0.90;0.43;;;4.00;99.90;;;;;;5011969;28;20210;-82
2021/03/03 05:41:05;;;;;;;0.47;0.30;;;4.10;99.90;;;;;;5012503;28;20179;-82
2021/03/03 05:43:31;;;;;;;0.33;0.33;;;4.10;99.90;;;;;;5005969;28;20193;-81
2021/03/03 05:45:58;;;;;;;0.20;0.20;;;4.20;99.90;;;;;;5009327;28;20248;-81
2021/03/03 05:48:37;;;;;;;0.83;0.60;;;4.30;99.90;;;;;;5009327;28;20237;-81
2021/03/03 05:51:05;;;;;;;0.63;0.63;;;4.30;99.90;;;;;;5009678;28;20197;-81
2021/03/03 05:53:32;;;;;;;0.60;0.43;;;4.50;99.90;;;;;;5010849;28;20205;-81
2021/03/03 05:55:58;;;;;;;0.93;0.93;;;4.50;99.90;;;;;;5010165;28;20185;-81
2021/03/03 05:58:27;;;;;;;0.80;0.33;;;4.50;99.90;;;;;;5010717;28;20614;-81
2021/03/03 06:00:55;;;;;;;1.37;0.70;;;4.50;99.90;;;;;;5010688;28;20239;-79
2021/03/03 06:03:22;;;;;;;0.93;0.30;;;4.50;99.90;;;;;;5014402;28;20198;-79
2021/03/03 06:05:48;;;;;;;1.70;1.10;;;4.50;99.90;;;;;;5012954;28;20222;-80
2021/03/03 06:08:21;;;;;;;2.47;1.07;;;4.50;99.90;;;;;;5012149;28;20224;-81
2021/03/03 06:10:48;;;;;;;2.00;0.57;;;4.30;99.90;;;;;;5009272;28;20182;-81
2021/03/03 06:13:14;;;;;;;1.03;0.53;;;4.30;99.90;;;;;;5010225;28;20209;-79
2021/03/03 06:15:41;;;;;;;0.20;0.20;;;4.30;99.90;;;;;;5019774;28;20233;-81
2021/03/03 06:18:11;;;;;;;0.53;0.53;;;4.20;99.90;;;;;;5021534;28;20256;-79
2021/03/03 06:20:39;;;;;;;0.60;0.50;;;4.20;99.90;;;;;;5020047;28;20185;-81
2021/03/03 06:23:13;;;;;;;0.83;0.83;;;4.20;99.90;;;;;;5024471;28;20768;-80
2021/03/03 06:25:39;;;;;;;0.20;0.17;;;4.20;99.90;;;;;;5026154;28;20221;-81
2021/03/03 06:28:05;;;;;;;1.23;0.30;;;4.20;99.90;;;;;;5023932;28;20209;-80
2021/03/03 06:30:31;;;;;;;0.43;0.40;;;4.20;99.90;;;;;;5029261;28;20184;-80
2021/03/03 06:33:02;;;;;;;0.70;0.70;;;4.20;99.90;;;;;;5021917;28;20208;-81
2021/03/03 06:35:41;;;;;;;1.63;1.27;;;4.20;99.90;;;;;;5027048;28;20232;-82
2021/03/03 06:38:10;;;;;;;2.87;1.00;;;4.20;99.90;;;;;;5021382;28;20212;-80
2021/03/03 06:40:51;;;;;;;0.40;0.40;;;4.30;99.90;;;;;;5024159;28;20192;-81
2021/03/03 06:43:20;;;;;;;1.10;0.47;;;4.30;99.90;;;;;;5023367;28;20218;-81
2021/03/03 06:45:45;;;;;;;1.30;0.40;;;4.40;99.90;;;;;;5027799;28;20208;-81
2021/03/03 06:48:11;;;;;;;0.10;0.10;;;4.40;99.90;;;;;;5027281;28;20280;-82
2021/03/03 06:50:38;;;;;;;0.67;0.67;;;4.50;99.90;;;;;;5026914;28;20743;-81
2021/03/03 06:53:04;;;;;;;0.20;0.20;;;4.50;99.90;;;;;;5025189;28;20265;-82
2021/03/03 06:55:48;;;;;;;0.33;0.30;;;4.60;99.90;;;;;;5022602;28;20195;-82
2021/03/03 06:58:26;;;;;;;0.47;0.47;;;4.60;99.90;;;;;;5023422;28;20211;-81
2021/03/03 07:00:52;;;;;;;1.10;0.40;;;4.60;99.90;;;;;;5021176;28;20177;-82
2021/03/03 07:03:28;;;;;;;0.40;0.40;;;4.70;99.90;;;;;;5026360;28;20756;-84
2021/03/03 07:05:54;;;;;;;0.33;0.27;;;4.80;99.90;;;;;;5017800;28;20205;-83
2021/03/03 07:08:20;;;;;;;0.30;0.30;;;4.80;99.90;;;;;;5022141;28;20568;-84
2021/03/03 07:10:46;;;;;;;1.70;1.17;;;4.90;99.90;;;;;;5021507;28;20200;-84
2021/03/03 07:13:12;;;;;;;1.73;0.63;;;5.00;99.90;;;;;;5019839;28;20651;-83
2021/03/03 07:15:37;;;;;;;0.47;0.47;;;5.10;99.90;;;;;;5022263;28;20229;-85
2021/03/03 07:18:03;;;;;;;0.30;0.30;;;5.10;99.90;;;;;;5013506;28;20574;-82
2021/03/03 07:20:28;;;;;;;0.73;0.43;;;5.20;99.90;;;;;;5009012;28;20270;-84
2021/03/03 07:22:57;;;;;;;0.80;0.50;;;5.30;99.90;;;;;;5015151;28;20292;-83
2021/03/03 07:25:23;;;;;;;0.33;0.27;;;5.40;99.90;;;;;;5016080;28;20285;-83
2021/03/03 07:27:51;;;;;;;0.33;0.27;;;5.40;99.90;;;;;;5015297;28;20218;-83
2021/03/03 07:30:20;;;;;;;0.60;0.40;;;5.50;99.90;;;;;;5013783;28;20294;-83
2021/03/03 07:32:46;;;;;;;0.93;0.63;;;5.60;99.90;;;;;;5012133;28;20205;-83
2021/03/03 07:35:12;;;;;;;0.43;0.40;;;5.70;99.90;;;;;;5004227;28;20198;-82
2021/03/03 07:37:41;;;;;;;0.37;0.30;;;5.80;99.90;;;;;;5013204;28;20199;-82
2021/03/03 07:40:11;;;;;;;2.17;0.53;;;6.00;99.90;;;;;;5010681;28;20210;-81
2021/03/03 07:42:39;;;;;;;0.10;0.10;;;6.10;99.90;;;;;;4998374;28;20301;-82
2021/03/03 07:45:10;;;;;;;0.33;0.33;;;6.30;99.90;;;;;;4999010;28;20214;-82
2021/03/03 07:47:39;;;;;;;0.67;0.53;;;6.40;99.90;;;;;;5002129;28;20191;-81
2021/03/03 07:50:13;;;;;;;0.43;0.30;;;6.50;99.90;;;;;;5003983;28;20680;-82
2021/03/03 07:52:56;;;;;;;0.40;0.40;;;6.60;99.90;;;;;;5006556;28;20186;-82
2021/03/03 07:55:22;;;;;;;2.67;1.33;;;6.70;99.90;;;;;;5013159;28;20191;-82
2021/03/03 07:57:50;;;;;;;0.50;0.50;;;6.80;99.90;;;;;;5012915;28;20203;-83
2021/03/03 08:00:26;;;;;;;1.83;0.77;;;6.90;99.90;;;;;;5012108;28;20206;-83
2021/03/03 08:02:53;;;;;;;0.60;0.60;;;6.90;99.90;;;;;;5017863;28;20214;-82
2021/03/03 08:05:30;;;;;;;1.03;0.57;;;6.90;99.90;;;;;;5009694;28;20246;-82
2021/03/03 08:08:08;;;;;;;0.80;0.60;;;7.00;99.90;;;;;;5011833;28;20186;-82
2021/03/03 08:10:39;;;;;;;1.23;0.63;;;7.00;99.90;;;;;;5011291;28;20222;-83
2021/03/03 08:13:06;;;;;;;0.37;0.37;;;7.00;99.90;;;;;;5013126;28;20183;-82
2021/03/03 08:15:31;;;;;;;0.83;0.60;;;7.10;99.90;;;;;;5013090;28;20214;-81
2021/03/03 08:18:15;;;;;;;1.37;0.67;;;7.10;99.90;;;;;;5013547;28;20198;-81
2021/03/03 08:20:42;;;;;;;0.67;0.57;;;7.20;99.90;;;;;;5013919;28;20649;-82
2021/03/03 08:23:08;;;;;;;3.30;0.20;;;7.30;99.90;;;;;;5015437;28;20183;-83
2021/03/03 08:25:44;;;;;;;1.33;0.53;;;7.40;99.90;;;;;;5013027;28;20243;-83
2021/03/03 08:28:26;;;;;;;1.17;0.47;;;7.40;99.90;;;;;;5015426;28;20206;-82
2021/03/03 08:31:07;;;;;;;0.40;0.40;;;7.40;99.90;;;;;;5013109;28;20175;-82
2021/03/03 08:33:37;;;;;;;0.47;0.33;;;7.50;99.90;;;;;;5012470;28;20188;-82
2021/03/03 08:36:04;;;;;;;0.37;0.30;;;7.60;99.90;;;;;;5014399;28;20190;-81
2021/03/03 08:38:29;;;;;;;0.60;0.27;;;7.70;99.90;;;;;;5013564;28;20881;-83
2021/03/03 08:41:14;;;;;;;0.40;0.40;;;8.00;99.90;;;;;;5015670;28;20213;-82
2021/03/03 08:43:50;;;;;;;2.00;0.83;;;8.20;99.90;;;;;;5009106;28;20265;-82
2021/03/03 08:46:19;;;;;;;0.40;0.40;;;8.40;99.90;;;;;;5013525;28;20187;-81
2021/03/03 08:48:46;;;;;;;0.73;0.50;;;8.70;99.90;;;;;;5014452;28;20565;-82
2021/03/03 08:51:24;;;;;;;0.67;0.67;;;8.90;99.90;;;;;;5006981;28;20176;-82
2021/03/03 08:53:53;;;;;;;0.53;0.53;;;9.10;99.90;;;;;;5012063;28;20211;-84
2021/03/03 08:56:45;;;;;;;3.23;0.67;;;9.40;99.90;;;;;;5009120;28;20185;-82
2021/03/03 08:59:11;;;;;;;4.83;0.57;;;9.40;99.90;;;;;;5017148;28;20228;-82
2021/03/03 09:02:15;;;;;;;0.67;0.67;;;9.50;99.90;;;;;;5015048;28;20213;-82
2021/03/03 09:04:43;;;;;;;0.80;0.70;;;9.60;99.90;;;;;;5012918;28;20215;-82
2021/03/03 09:07:18;;;;;;;0.53;0.30;;;9.60;99.90;;;;;;5008321;28;20219;-82
2021/03/03 09:09:46;;;;;;;3.30;0.50;;;9.60;99.90;;;;;;5008996;28;20281;-82
2021/03/03 09:12:14;;;;;;;1.90;0.90;;;9.70;99.90;;;;;;5012860;28;20189;-82
2021/03/03 09:14:41;;;;;;;0.67;0.60;;;9.80;99.90;;;;;;5013247;28;20190;-82
2021/03/03 09:17:12;;;;;;;0.73;0.70;;;10.10;99.90;;;;;;5012394;28;20555;-83
2021/03/03 09:19:39;;;;;;;0.53;0.53;;;10.20;99.90;;;;;;5013416;28;20221;-82
2021/03/03 09:22:17;;;;;;;1.13;0.50;;;10.40;99.90;;;;;;5013633;28;20190;-82
2021/03/03 09:24:45;;;;;;;1.50;1.00;;;10.50;99.90;;;;;;5010647;28;20736;-82
2021/03/03 09:27:11;;;;;;;0.33;0.33;;;10.50;99.90;;;;;;5011579;28;20183;-82
2021/03/03 09:29:38;;;;;;;0.80;0.60;;;10.40;99.90;;;;;;5022434;28;20253;-81
2021/03/03 09:32:08;;;;;;;0.60;0.60;;;10.30;99.90;;;;;;5010928;28;20218;-80
2021/03/03 09:34:36;;;;;;;0.73;0.73;;;10.00;99.90;;;;;;5007722;28;20260;-80
2021/03/03 09:37:03;;;;;;;1.80;1.23;;;10.20;99.90;;;;;;5011463;28;20620;-80
2021/03/03 09:39:30;;;;;;;3.20;0.50;;;10.40;99.90;;;;;;5016470;28;20221;-80
2021/03/03 09:41:59;;;;;;;0.30;0.30;;;10.30;99.90;;;;;;5015180;28;20203;-80
2021/03/03 09:44:26;;;;;;;0.63;0.63;;;10.40;99.90;;;;;;5014361;28;20256;-80
2021/03/03 09:46:53;;;;;;;1.60;0.47;;;10.60;99.90;;;;;;5014525;28;20214;-83
2021/03/03 09:49:29;;;;;;;1.00;0.63;;;10.80;99.90;;;;;;5014536;28;20210;-82
2021/03/03 09:51:59;;;;;;;0.77;0.77;;;10.60;99.90;;;;;;5013360;28;20216;-83
2021/03/03 09:54:26;;;;;;;3.30;0.73;;;10.20;99.90;;;;;;5014368;28;20205;-80
2021/03/03 09:56:52;;;;;;;0.83;0.83;;;10.70;99.90;;;;;;5012439;28;20273;-81
2021/03/03 09:59:18;;;;;;;1.93;1.13;;;11.00;99.90;;;;;;5016137;28;20239;-82
2021/03/03 10:01:44;;;;;;;2.00;0.50;;;11.20;99.90;;;;;;5024063;28;20190;-80
2021/03/03 10:04:10;;;;;;;2.13;1.77;;;11.50;99.90;;;;;;5008999;28;20213;-80
2021/03/03 10:06:36;;;;;;;5.83;3.77;;;11.60;99.90;;;;;;5010259;28;20183;-81
2021/03/03 10:09:02;;;;;;;2.03;1.50;;;11.30;99.90;;;;;;5012176;28;20207;-80
2021/03/03 10:11:28;;;;;;;2.30;0.43;;;11.40;99.90;;;;;;5007942;28;20213;-81
2021/03/03 10:14:06;;;;;;;1.67;1.37;;;11.60;99.90;;;;;;5013329;28;20210;-83
2021/03/03 10:16:32;;;;;;;0.97;0.80;;;11.90;99.90;;;;;;5013060;28;20178;-81
2021/03/03 10:19:00;;;;;;;1.77;1.17;;;11.80;99.90;;;;;;5010606;28;20225;-80
2021/03/03 10:21:25;;;;;;;1.43;1.33;;;11.70;99.90;;;;;;5007445;28;20242;-84
2021/03/03 10:23:51;;;;;;;3.83;0.73;;;11.70;99.90;;;;;;5003051;28;20188;-80
2021/03/03 10:26:17;;;;;;;1.13;0.73;;;11.70;99.90;;;;;;5011906;28;20269;-80
2021/03/03 10:28:42;;;;;;;1.10;1.00;;;12.00;99.90;;;;;;5012879;28;20277;-80
2021/03/03 10:31:18;;;;;;;1.07;0.90;;;12.40;99.90;;;;;;5014345;28;20183;-80
2021/03/03 10:33:44;;;;;;;4.27;0.93;;;12.50;99.90;;;;;;5013484;28;20668;-80
2021/03/03 10:36:18;;;;;;;1.80;0.90;;;12.50;99.90;;;;;;5015093;28;20209;-80
2021/03/03 10:38:49;;;;;;;1.57;1.20;;;12.60;99.90;;;;;;5014214;28;20687;-81
2021/03/03 10:41:25;;;;;;;0.90;0.90;;;12.70;99.90;;;;;;5009286;28;20290;-80
2021/03/03 10:43:51;;;;;;;2.37;1.53;;;13.00;99.90;;;;;;5005674;28;20265;-80
2021/03/03 10:46:20;;;;;;;0.43;0.43;;;13.00;99.90;;;;;;5015106;28;20313;-80
2021/03/03 10:48:46;;;;;;;3.13;1.00;;;13.20;99.90;;;;;;5010096;28;20281;-81
2021/03/03 10:51:13;;;;;;;2.13;1.90;;;13.30;99.90;;;;;;5007233;28;20191;-82
2021/03/03 10:53:48;;;;;;;0.60;0.60;;;13.30;99.90;;;;;;5011068;28;20183;-81
2021/03/03 10:56:37;;;;;;;2.53;0.83;;;13.50;99.90;;;;;;5005560;28;20226;-83
2021/03/03 10:59:11;;;;;;;0.73;0.73;;;13.60;99.90;;;;;;5012273;28;20207;-80
2021/03/03 11:01:43;;;;;;;2.07;0.93;;;13.60;99.90;;;;;;5010829;28;20210;-81
2021/03/03 11:04:09;;;;;;;2.20;1.57;;;13.50;99.90;;;;;;5013319;28;20209;-81
2021/03/03 11:06:36;;;;;;;2.20;1.47;;;13.50;99.90;;;;;;5013024;28;20259;-81
2021/03/03 11:09:05;;;;;;;1.27;1.20;;;13.60;99.90;;;;;;5012160;28;20217;-81
2021/03/03 11:11:31;;;;;;;0.90;0.80;;;13.70;99.90;;;;;;5005708;28;20183;-80
2021/03/03 11:13:56;;;;;;;0.80;0.80;;;13.90;99.90;;;;;;5011268;28;20648;-81
2021/03/03 11:16:22;;;;;;;0.50;0.40;;;14.00;99.90;;;;;;5014817;28;20183;-81
2021/03/03 11:18:49;;;;;;;0.77;0.50;;;13.90;99.90;;;;;;5020479;28;20214;-81
2021/03/03 11:21:14;;;;;;;1.70;0.77;;;14.00;99.90;;;;;;5014935;28;20175;-81
2021/03/03 11:23:40;;;;;;;2.37;0.93;;;13.80;99.90;;;;;;5022376;28;20318;-81
2021/03/03 11:26:05;;;;;;;2.80;1.90;;;13.10;99.90;;;;;;5019905;28;20192;-81
2021/03/03 11:28:31;;;;;;;1.53;1.43;;;13.30;99.90;;;;;;5019503;28;20288;-81
2021/03/03 11:30:57;;;;;;;1.77;1.20;;;13.60;99.90;;;;;;5020039;28;20661;-81
2021/03/03 11:33:22;;;;;;;2.77;1.43;;;13.90;99.90;;;;;;5021658;28;20735;-81
2021/03/03 11:35:48;;;;;;;0.80;0.80;;;14.00;99.90;;;;;;5020209;28;20191;-81
2021/03/03 11:38:14;;;;;;;0.90;0.90;;;14.30;99.90;;;;;;5020762;28;20231;-80
2021/03/03 11:40:40;;;;;;;1.20;1.10;;;14.20;99.90;;;;;;5021336;28;20187;-81
2021/03/03 11:43:06;;;;;;;0.93;0.93;;;14.40;99.90;;;;;;5018350;28;20184;-81
2021/03/03 11:45:33;;;;;;;3.20;0.60;;;14.40;99.90;;;;;;5029478;28;20205;-80
2021/03/03 11:47:59;;;;;;;1.27;1.10;;;14.50;99.90;;;;;;5016010;28;20262;-82
2021/03/03 11:50:25;;;;;;;1.63;1.50;;;14.40;99.90;;;;;;5022586;28;20258;-81
2021/03/03 11:52:50;;;;;;;1.00;0.93;;;14.40;99.90;;;;;;5013746;28;20277;-81
2021/03/03 11:55:16;;;;;;;0.70;0.40;;;14.60;99.90;;;;;;5015311;28;20187;-81
2021/03/03 11:57:42;;;;;;;5.40;3.03;;;14.80;99.90;;;;;;5015247;28;20183;-81
2021/03/03 12:00:11;;;;;;;2.00;1.90;;;14.90;99.90;;;;;;5012498;28;20214;-81
2021/03/03 12:02:37;;;;;;;1.77;1.67;;;14.80;99.90;;;;;;5012256;28;20225;-81
2021/03/03 12:05:04;;;;;;;3.27;1.83;;;14.30;99.90;;;;;;5010436;28;20214;-82
2021/03/03 12:07:30;;;;;;;0.80;0.80;;;14.10;99.90;;;;;;5010812;28;20183;-81
2021/03/03 12:09:55;;;;;;;2.03;1.03;;;14.10;99.90;;;;;;5011032;28;20214;-82
2021/03/03 12:12:21;;;;;;;2.00;1.20;;;14.50;99.90;;;;;;5007920;28;20180;-82
2021/03/03 12:14:47;;;;;;;1.23;1.13;;;14.80;99.90;;;;;;5006602;28;20183;-86
2021/03/03 12:17:15;;;;;;;1.60;1.47;;;15.00;99.90;;;;;;5009069;28;20187;-84
2021/03/03 12:19:41;;;;;;;1.10;1.00;;;15.20;99.90;;;;;;5010781;28;20223;-85
2021/03/03 12:22:06;;;;;;;1.53;1.40;;;15.20;99.90;;;;;;5002065;28;20196;-83
2021/03/03 12:24:32;;;;;;;1.70;1.30;;;15.30;99.90;;;;;;5018283;28;20261;-85
2021/03/03 12:26:57;;;;;;;2.40;1.70;;;15.10;99.90;;;;;;5018210;28;20198;-85
2021/03/03 12:29:23;;;;;;;2.03;1.43;;;15.10;99.90;;;;;;5017156;28;20672;-85
2021/03/03 12:31:49;;;;;;;2.43;1.50;;;15.10;99.90;;;;;;5020159;28;20179;-84
2021/03/03 12:34:14;;;;;;;1.27;0.77;;;15.30;99.90;;;;;;5024385;28;20188;-84
2021/03/03 12:36:40;;;;;;;2.57;2.10;;;15.40;99.90;;;;;;5023679;28;20193;-84
2021/03/03 12:39:06;;;;;;;2.27;1.73;;;15.40;99.90;;;;;;5023860;28;20228;-85
2021/03/03 12:41:32;;;;;;;1.13;1.00;;;15.50;99.90;;;;;;5016860;28;20275;-84
2021/03/03 12:43:57;;;;;;;0.80;0.80;;;15.60;99.90;;;;;;5018212;28;20212;-84
2021/03/03 12:46:24;;;;;;;1.20;0.97;;;15.60;99.90;;;;;;5012839;28;20540;-84
2021/03/03 12:48:51;;;;;;;1.33;0.63;;;15.60;99.90;;;;;;5012623;28;20214;-86
2021/03/03 12:51:16;;;;;;;2.50;1.53;;;15.60;99.90;;;;;;5018382;28;20173;-83
2021/03/03 12:53:42;;;;;;;1.03;0.57;;;15.30;99.90;;;;;;5018420;28;20187;-83
2021/03/03 12:56:08;;;;;;;0.77;0.73;;;15.50;99.90;;;;;;5020667;28;20185;-84